Nearby METAR Reports

 

CYFC - Fredericton Airp, New Brunswick
Distance from station: E 14km
Updated: Thu, 16-Sep-2021 8:00am ADT
Mostly cloudy
Mostly cloudy
 Wind from W
Wind: W 7 km/h
Temperature: 13°C
Dew Point: 12°C
Humidity: 94%
Barometer: 1022 hPa
Clouds: Mostly cloudy
Visibility: 14 km
Cloud details: Mostly cloudy 7315 m
2021/09/16 11:00 CYFC 161100Z AUTO 26004KT 9SM BKN240 13/12 A3018 RMK PRESRR SLP222
CYCX - Gagetown (can M, New Brunswick
Distance from station: E 22km
Updated: Thu, 16-Sep-2021 8:00am ADT
Mostly cloudy
Mostly cloudy
 Wind from WNW
Wind: WNW 6 km/h
Temperature: 14°C
Dew Point: 13°C
Humidity: 94%
Barometer: 1021 hPa
Clouds: Mostly cloudy
Visibility: 24 km
Cloud details: Partly cloudy 1097 m
Mostly cloudy 3962 m
2021/09/16 11:00 CYCX 161100Z 29003KT 250V310 15SM SCT036 BKN130 14/13 A3015 RMK SC4AC2 DA-1FT SLP210
 
CYQM - Moncton Airport, New Brunswick
Distance from station: ENE 159km
Updated: Thu, 16-Sep-2021 8:19am ADT
Mostly cloudy
Mostly cloudy
 Wind from NW
Wind: NW 17 km/h
Temperature: 16°C
Dew Point: 16°C
Humidity: 100%
Barometer: 1021 hPa
Clouds: Mostly cloudy
Visibility: 24 km
Cloud details: Few Clouds 152 m
Partly cloudy 457 m
Mostly cloudy 1219 m
Mostly cloudy 6706 m
2021/09/16 11:19 CYQM 161119Z 32009KT 15SM FEW005 SCT015 BKN040 BKN220 16/16 A3015 RMK CU1SC3SC2CI1 PRESRR SLP211
CYSJ - Saint John, New Brunswick
Distance from station: SE 88km
Updated: Thu, 16-Sep-2021 8:00am ADT
Overcast
Overcast
 Wind from WNW
Wind: WNW 11 km/h
Temperature: 16°C
Dew Point: 16°C
Humidity: 100%
Barometer: 1021.3 hPa
Clouds: Overcast
Visibility: 16 km
Cloud details: Few Clouds 152 m
Few Clouds 914 m
Mostly cloudy 1524 m
Overcast 3353 m
2021/09/16 11:00 CYSJ 161100Z 29006KT 10SM FEW005 FEW030 BKN050 OVC110 16/16 A3016 RMK SF1SC1SC4AC2 SLP216
 
CWPE - Point Lepreau, New Brunswick
Distance from station: SSE 90km
Updated: Thu, 16-Sep-2021 8:00am ADT

 Wind from NNW
Wind: NNW 4 km/h
Temperature: 15°C
Dew Point: 15°C
Humidity: 100%
2021/09/16 11:00 CWPE 161100Z AUTO 34002KT 15/15 RMK AO1 SLP212 T01520152 52035
CYHZ - Halifax Intl Arp, Nova Scotia
Distance from station: ESE 273km
Updated: Thu, 16-Sep-2021 8:00am ADT
Overcast
Overcast
 Wind from SW
Wind: SW 11 km/h
Temperature: 19°C
Dew Point: 19°C
Humidity: 100%
Barometer: 1020.3 hPa
Clouds: Overcast
Visibility: 13 km
Cloud details: Mostly cloudy 122 m
Overcast 610 m
2021/09/16 11:00 CYHZ 161100Z 23006KT 8SM BKN004 OVC020 19/19 A3013 RMK SF6SC2 HAZY SLP203 DENSITY ALT 800FT
 
CYZX - Greenwood (can M, Nova Scotia
Distance from station: SE 169km
Updated: Thu, 16-Sep-2021 8:20am ADT
Light rain, Showers, Mist, Overcast
Light rain, Showers, Mist, Overcast
 Wind from W
Wind: W 6 km/h
Temperature: 19°C
Dew Point: 18°C
Humidity: 94%
Barometer: 1021.3 hPa
Summary: Light rain, Showers, Mist
Clouds: Overcast
Visibility: 8 km
Cloud details: Few Clouds 274 m
Partly cloudy 1829 m
Overcast 2743 m
2021/09/16 11:20 CYZX 161120Z 28003KT 5SM -SHRA BR FEW009 SCT060 OVC090 19/18 A3016 RMK SF1SC3AC4 SLP213
CYQI - Yarmouth Airport, Nova Scotia
Distance from station: SSE 230km
Updated: Thu, 16-Sep-2021 8:10am ADT
Mist, Overcast
Mist, Overcast
 Wind from NNW
Wind: NNW 15 km/h
Temperature: 17°C
Dew Point: 17°C
Humidity: 100%
Barometer: 1021.3 hPa
Summary: Mist
Clouds: Overcast
Visibility: 3 km
Cloud details: Overcast 61 m
2021/09/16 11:10 CYQI 161110Z 34008KT 2SM BR OVC002 17/17 A3016 RMK SF8 SLP215
 
KHUL - Houlton, Maine, USA
Distance from station: WNW 90km
Updated: Thu, 16-Sep-2021 7:53am ADT
Clear
Clear
 Wind from calm
Wind: Calm
Temperature: 11°C
Dew Point: 9°C
Humidity: 88%
Barometer: 1022 hPa
Clouds: Clear
Visibility: 16 km
2021/09/16 10:53 KHUL 161053Z AUTO 00000KT 10SM CLR 11/09 A3018 RMK AO2 SLP223 T01060094
KPQI - Presque Isle, Maine, USA
Distance from station: NW 137km
Updated: Thu, 16-Sep-2021 7:56am ADT
Mist, Clear
Mist, Clear
 Wind from calm
Wind: Calm
Temperature: 9°C
Dew Point: 8°C
Humidity: 94%
Barometer: 1022.7 hPa
Summary: Mist
Clouds: Clear
Visibility: 6 km
2021/09/16 10:56 KPQI 161056Z AUTO 00000KT 4SM BR CLR 09/08 A3020 RMK AO2 SLP252 T00890083
 
KCAR - Caribou, Maine, USA
Distance from station: NW 151km
Updated: Thu, 16-Sep-2021 7:54am ADT
Clear
Clear
 Wind from W
Wind: W 6 km/h
Temperature: 11°C
Dew Point: 9°C
Humidity: 88%
Barometer: 1022 hPa
Clouds: Clear
Visibility: 16 km
2021/09/16 10:54 KCAR 161054Z AUTO 27003KT 10SM CLR 11/09 A3018 RMK AO2 SLP223 T01110089
KMLT - Millinocket, Maine, USA
Distance from station: W 157km
Updated: Thu, 16-Sep-2021 7:53am ADT
Clear
Clear
 Wind from calm
Wind: Calm
Temperature: 12°C
Dew Point: 11°C
Humidity: 94%
Barometer: 1023 hPa
Clouds: Clear
Visibility: 16 km
2021/09/16 10:53 KMLT 161053Z AUTO 00000KT 10SM CLR 12/11 A3021 RMK AO2 SLP237 T01170111 TSNO
 
KBGR - Bangor, Maine, USA
Distance from station: SW 203km
Updated: Thu, 16-Sep-2021 7:53am ADT
Mostly cloudy
Mostly cloudy
 Wind from NNW
Wind: NNW 11 km/h
Temperature: 14°C
Dew Point: 13°C
Humidity: 94%
Barometer: 1022.4 hPa
Clouds: Mostly cloudy
Visibility: 16 km
Cloud details: Few Clouds 2134 m
Mostly cloudy 4572 m
2021/09/16 10:53 KBGR 161053Z 34006KT 10SM FEW070 BKN150 14/13 A3019 RMK AO2 SLP220 T01440128 $
KBHB - Bar Harbor, Maine, USA
Distance from station: SW 204km
Updated: Thu, 16-Sep-2021 7:56am ADT
Partly cloudy
Partly cloudy
 Wind from N
Wind: N 7 km/h
Temperature: 16°C
Dew Point: 16°C
Humidity: 100%
Barometer: 1022.4 hPa
Clouds: Partly cloudy
Visibility: 16 km
Cloud details: Partly cloudy 1676 m
2021/09/16 10:56 KBHB 161056Z AUTO 36004KT 10SM SCT055 16/16 A3019 RMK AO2 SLP223 T01610156
 
CWVU - Brier Island(Aut, Nova Scotia
Distance from station: S 177km
Updated: Thu, 16-Sep-2021 8:00am ADT

 Wind from SSW
Wind: SSW 4 km/h
Temperature: 15°C
Dew Point: 15°C
Humidity: 100%
2021/09/16 11:00 CWVU 161100Z AUTO 21002KT 15/15 RMK AO1 6PAST HR 1028 SLP210 P0002 T01510151 50006
CXNP - Nappan (auto), Nova Scotia
Distance from station: E 191km
Updated: Thu, 16-Sep-2021 8:00am ADT

 Wind from W
Wind: W 13 km/h
Temperature: 17°C
Dew Point: 16°C
Humidity: 94%
2021/09/16 11:00 CXNP 161100Z AUTO 27007KT 17/16 RMK AO1 SLP200 T01670160 51035
 
CXKT - Kentville (autob, Nova Scotia
Distance from station: ESE 193km
Updated: Thu, 16-Sep-2021 8:00am ADT

 Wind from W
Wind: W 9 km/h
Temperature: 19°C
Dew Point: 18°C
Humidity: 94%
2021/09/16 11:00 CXKT 161100Z AUTO 27005KT 19/18 RMK AO1 SLP204 T01880179 53036
CWKG - Kejimkujik (au8), Nova Scotia
Distance from station: SE 197km
Updated: Thu, 16-Sep-2021 8:00am ADT

 Wind from NW
Wind: NW 4 km/h
Temperature: 19°C
Dew Point: 19°C
Humidity: 100%
2021/09/16 11:00 CWKG 161100Z AUTO 32002KT 19/19 RMK AO1 SLP208 T01890186 51027
 
KFVE - Frenchville, Maine, USA
Distance from station: NW 201km
Updated: Thu, 16-Sep-2021 7:53am ADT
Clear
Clear
 Wind from W
Wind: W 7 km/h
Temperature: 9°C
Wind Chill: 8°C
Dew Point: 7°C
Humidity: 87%
Barometer: 1021.7 hPa
Clouds: Clear
Visibility: 16 km
2021/09/16 10:53 KFVE 161053Z AUTO 28004KT 10SM CLR 09/07 A3017 RMK AO2 SLP216 T00940072
CZBF - Bathurst Arpt(Aw, New Brunswick
Distance from station: NNE 208km
Updated: Thu, 16-Sep-2021 8:00am ADT
Clear
Clear
 Wind from WNW
Wind: WNW 9 km/h
Temperature: 12°C
Dew Point: 9°C
Humidity: 82%
Barometer: 1020.3 hPa
Clouds: Clear
Visibility: 14 km
2021/09/16 11:00 CZBF 161100Z AUTO 29005KT 9SM CLR 12/09 A3013 RMK SLP207
 
CERM - Edmunston, New Brunswick
Distance from station: NW 213km
Updated: Thu, 16-Sep-2021 8:00am ADT

 Wind from calm
Wind: Calm
Temperature: 5°C
Dew Point: 5°C
Humidity: 100%
2021/09/16 11:00 CERM 161100Z AUTO 00000KT 05/05 RMK AO1 SLP222 T00500050 53032
KGNR - Greenville, Maine, USA
Distance from station: W 226km
Updated: Thu, 16-Sep-2021 7:56am ADT

 Wind from NNE
Wind: NNE 6 km/h
Temperature: 11°C
Dew Point: 9°C
Humidity: 88%
Barometer: 1022.7 hPa
2021/09/16 10:56 KGNR 161056Z AUTO 03003KT 11/09 A3020 RMK AO1 SLP228 T01110089
 
CWSD - Summerside (auto, PEI
Distance from station: ENE 228km
Updated: Thu, 16-Sep-2021 8:00am ADT

 Wind from W
Wind: W 13 km/h
Temperature: 16°C
Dew Point: 15°C
Humidity: 94%
2021/09/16 11:00 CWSD 161100Z AUTO 28007KT 16/15 RMK AO1 PRESRR 3045 SLP202 T01590146 50014
K40B - Clayton Lake, Maine, USA
Distance from station: WNW 233km
Updated: Thu, 16-Sep-2021 8:16am ADT

 Wind from calm
Wind: Calm
Temperature: 7°C
Barometer: 1023 hPa
2021/09/16 11:16 K40B 161116Z AUTO 00000KT 07/ A3021 RMK AO1 SLP235 T0074 52031
 
CZCR - Charlo Airport, New Brunswick
Distance from station: N 236km
Updated: Thu, 16-Sep-2021 8:00am ADT

 Wind from SW
Wind: SW 9 km/h
Temperature: 10°C
Wind Chill: 9°C
Dew Point: 9°C
Humidity: 94%
2021/09/16 11:00 CZCR 161100Z AUTO 23005KT 10/09 RMK AO1 SLP203 T00950091 51037
CWNE - North Point (aut, Ontario
Distance from station: NE 246km
Updated: Thu, 16-Sep-2021 8:00am ADT

 Wind from WNW
Wind: WNW 37 km/h
Temperature: 15°C
Dew Point: 12°C
Humidity: 82%
2021/09/16 11:00 CWNE 161100Z AUTO 29020KT 15/12 RMK AO1 PK WND 29026/1047 SLP188 T01500123 53044
 
CXLB - Lunenburg, Nova Scotia
Distance from station: SE 250km
Updated: Thu, 16-Sep-2021 8:00am ADT

 Wind from SW
Wind: SW 2 km/h
Temperature: 17°C
Dew Point: 17°C
Humidity: 100%
2021/09/16 11:00 CXLB 161100Z AUTO 23001KT 17/17 RMK AO1 SLP194 T01700170 53022
CZDB - Debert, Nova Scotia
Distance from station: E 255km
Updated: Thu, 16-Sep-2021 8:00am ADT

 Wind from WSW
Wind: WSW 9 km/h
Temperature: 18°C
Dew Point: 17°C
Humidity: 94%
2021/09/16 11:00 CZDB 161100Z AUTO 24005KT 18/17 RMK AO1 SLP204 T01810173 53032
 
CWOC - New Carlisle1, Quebec
Distance from station: NNE 262km
Updated: Thu, 16-Sep-2021 8:00am ADT

 Wind from W
Wind: W 7 km/h
Temperature: 12°C
Dew Point: 10°C
Humidity: 88%
2021/09/16 11:00 CWOC 161100Z AUTO 28004KT 12/10 RMK AO1 SLP191 T01170102 51041
CWWE - Western Head (ma, Nova Scotia
Distance from station: SE 264km
Updated: Thu, 16-Sep-2021 8:00am ADT

 Wind from SSW
Wind: SSW 6 km/h
Temperature: 14°C
Dew Point: 14°C
Humidity: 100%
2021/09/16 11:00 CWWE 161100Z AUTO 21003KT 14/14 RMK AO1 SLP202 T01370137 51020
 
KRKD - Rockland/Knox, Maine, USA
Distance from station: SW 274km
Updated: Thu, 16-Sep-2021 7:56am ADT
Overcast
Overcast
 Wind from calm
Wind: Calm
Temperature: 17°C
Dew Point: 14°C
Humidity: 83%
Barometer: 1022.7 hPa
Clouds: Overcast
Visibility: 16 km
Cloud details: Few Clouds 1981 m
Overcast 2438 m
2021/09/16 10:56 KRKD 161056Z AUTO 00000KT 10SM FEW065 OVC080 17/14 A3020 RMK AO2 SLP227 T01670144
CAHR - Harrington Cda, Ontario
Distance from station: ENE 277km
Updated: Thu, 16-Sep-2021 8:00am ADT

 Wind from NW
Wind: NW 15 km/h
Temperature: 17°C
Dew Point: 14°C
Humidity: 83%
2021/09/16 11:00 CAHR 161100Z AUTO 32008KT 17/14 RMK AO1 3043 SLP193 T01670135 50007
 
KWVL - Waterville, Maine, USA
Distance from station: WSW 277km
Updated: Thu, 16-Sep-2021 7:56am ADT
Clear
Clear
 Wind from N
Wind: N 7 km/h
Temperature: 14°C
Dew Point: 12°C
Humidity: 88%
Barometer: 1022.4 hPa
Clouds: Clear
Visibility: 16 km
2021/09/16 10:56 KWVL 161056Z AUTO 35004KT 10SM CLR 14/12 A3019 RMK AO2 PRESRR SLP251 T01440122
CYYG - Charlottetown Ar, PEI
Distance from station: E 280km
Updated: Thu, 16-Sep-2021 8:00am ADT
Mostly cloudy
Mostly cloudy
 Wind from NW
Wind: NW 19 km/h
Temperature: 18°C
Dew Point: 16°C
Humidity: 88%
Barometer: 1019 hPa
Clouds: Mostly cloudy
Visibility: 24 km
Cloud details: Mostly cloudy 274 m
Mostly cloudy 610 m
2021/09/16 11:00 CYYG 161100Z 31010KT 15SM BKN009 BKN020 18/16 A3009 RMK SC5SC2 SLP192 DENSITY ALT 400FT
 
CXMI - Mcnabs Island, Nova Scotia
Distance from station: ESE 284km
Updated: Thu, 16-Sep-2021 8:00am ADT

 Wind from W
Wind: W 4 km/h
Temperature: 18°C
Dew Point: 18°C
Humidity: 100%
2021/09/16 11:00 CXMI 161100Z AUTO 28002KT 18/18 RMK AO1 SLP196 T01830179 53024
KAUG - Augusta, Maine, USA
Distance from station: SW 298km
Updated: Thu, 16-Sep-2021 7:53am ADT
Few Clouds
Few Clouds
 Wind from N
Wind: N 11 km/h
Temperature: 16°C
Dew Point: 14°C
Humidity: 88%
Barometer: 1023.4 hPa
Clouds: Few Clouds
Visibility: 16 km
Cloud details: Few Clouds 975 m
2021/09/16 10:53 KAUG 161053Z AUTO 35006KT 10SM FEW032 16/14 A3022 RMK AO2 SLP232 T01610139
 
CWST - La Pocatiere, Quebec
Distance from station: NW 303km
Updated: Thu, 16-Sep-2021 7:00am ADT
NOT Current

 Wind from SW
Wind: SW 11 km/h
Temperature: 12°C
Dew Point: 10°C
Humidity: 88%
2021/09/16 10:00 CWST 161000Z AUTO 23006KT 12/10 RMK AO1 SLP207 T01160098 52025
CWNH - Riviere Du Loup, Quebec
Distance from station: NW 304km
Updated: Thu, 16-Sep-2021 8:00am ADT

 Wind from S
Wind: S 7 km/h
Temperature: 11°C
Dew Point: 10°C
Humidity: 94%
2021/09/16 11:00 CWNH 161100Z AUTO 19004KT 11/10 RMK AO1 SLP223 T01140099 53031
 
CWBK - Caribou Point(Ma, Nova Scotia
Distance from station: E 312km
Updated: Thu, 16-Sep-2021 8:00am ADT

 Wind from W
Wind: W 17 km/h
Temperature: 19°C
Dew Point: 18°C
Humidity: 94%
2021/09/16 11:00 CWBK 161100Z AUTO 28009KT 19/18 RMK AO1 SLP192 T01930178 53031
CWHV - Beauceville, Quebec
Distance from station: W 317km
Updated: Thu, 16-Sep-2021 8:00am ADT

 Wind from SSE
Wind: SSE 2 km/h
Temperature: 8°C
Dew Point: 7°C
Humidity: 93%
2021/09/16 11:00 CWHV 161100Z AUTO 15001KT 08/07 RMK AO1 SLP240 T00770074 53032
 
KIWI - Wiscasset, Maine, USA
Distance from station: SW 318km
Updated: Thu, 16-Sep-2021 7:53am ADT
Partly cloudy
Partly cloudy
 Wind from calm
Wind: Calm
Temperature: 17°C
Dew Point: 16°C
Humidity: 94%
Barometer: 1022.7 hPa
Clouds: Partly cloudy
Visibility: 16 km
Cloud details: Few Clouds 1494 m
Few Clouds 2591 m
Partly cloudy 3353 m
2021/09/16 10:53 KIWI 161053Z AUTO 00000KT 10SM FEW049 FEW085 SCT110 17/16 A3020 RMK AO2 SLP226 T01720161